createdAt,value
2023-04-29T00:00:38.172Z,99878.23
2023-04-29T00:03:05.070Z,99874.38
2023-04-29T00:05:32.235Z,99877.37
2023-04-29T00:07:59.139Z,99876.98
2023-04-29T00:10:26.230Z,99880.42
2023-04-29T00:12:53.842Z,99879.52
2023-04-29T00:15:21.235Z,99879.63
2023-04-29T00:17:47.938Z,99879.94
2023-04-29T00:20:14.821Z,99878.79
2023-04-29T00:22:41.516Z,99879.42
2023-04-29T00:25:08.576Z,99875.46
2023-04-29T00:27:35.322Z,99874.31
2023-04-29T00:30:03.218Z,99870.76
2023-04-29T00:32:30.704Z,99874.00
2023-04-29T00:34:57.451Z,99868.86
2023-04-29T00:37:24.302Z,99871.09
2023-04-29T00:39:51.207Z,99869.09
2023-04-29T00:42:18.091Z,99870.17
2023-04-29T00:44:44.916Z,99872.73
2023-04-29T00:47:12.081Z,99870.21
2023-04-29T00:49:39.238Z,99871.14
2023-04-29T00:52:09.025Z,99870.17
2023-04-29T00:54:36.977Z,99870.83
2023-04-29T00:57:05.795Z,99871.53
2023-04-29T00:59:34.001Z,99872.83
2023-04-29T01:02:02.518Z,99881.20
2023-04-29T01:04:30.460Z,99884.40
2023-04-29T01:07:23.619Z,99884.96
2023-04-29T01:10:10.131Z,99882.95
2023-04-29T01:12:50.466Z,99882.59
2023-04-29T01:15:26.431Z,99889.06
2023-04-29T01:18:05.044Z,99885.41
2023-04-29T01:20:31.951Z,99885.23
2023-04-29T01:22:58.856Z,99882.85
2023-04-29T01:25:26.416Z,99883.16
2023-04-29T01:28:26.720Z,99888.94
2023-04-29T01:31:23.340Z,99892.64
2023-04-29T01:34:05.619Z,99895.81
2023-04-29T01:37:11.159Z,99900.27
2023-04-29T01:40:08.933Z,99902.27
2023-04-29T01:42:47.888Z,99903.77
2023-04-29T01:45:17.397Z,99904.65
2023-04-29T01:47:44.703Z,99907.38
2023-04-29T01:50:11.535Z,99907.46
2023-04-29T01:52:39.352Z,99910.75
2023-04-29T01:55:07.084Z,99914.50
2023-04-29T01:57:41.574Z,99918.18
2023-04-29T02:00:29.075Z,99924.48
2023-04-29T02:02:56.476Z,99923.51
2023-04-29T02:05:33.422Z,99925.65
2023-04-29T02:08:01.491Z,99926.41
2023-04-29T02:10:29.426Z,99930.21
2023-04-29T02:13:16.474Z,99928.76
2023-04-29T02:15:43.697Z,99930.31
2023-04-29T02:18:10.456Z,99930.61
2023-04-29T02:20:37.806Z,99925.83
2023-04-29T02:23:05.245Z,99922.63
2023-04-29T02:25:33.313Z,99922.27
2023-04-29T02:28:00.069Z,99924.95
2023-04-29T02:30:26.805Z,99919.69
2023-04-29T02:32:54.920Z,99922.17
2023-04-29T02:35:21.645Z,99925.50
2023-04-29T02:37:48.371Z,99924.75
2023-04-29T02:40:15.576Z,99929.59
2023-04-29T02:42:42.384Z,99935.16
2023-04-29T02:45:10.048Z,99938.21
2023-04-29T02:47:37.047Z,99940.52
2023-04-29T02:50:04.240Z,99945.61
2023-04-29T02:52:31.763Z,99946.29
2023-04-29T02:54:58.669Z,99950.05
2023-04-29T02:57:25.638Z,99950.81
2023-04-29T02:59:54.147Z,99956.16
2023-04-29T03:02:21.170Z,99957.70
2023-04-29T03:04:50.729Z,99960.66
2023-04-29T03:07:17.541Z,99960.91
2023-04-29T03:09:44.726Z,99962.55
2023-04-29T03:12:12.430Z,99965.45
2023-04-29T03:14:39.242Z,99971.45
2023-04-29T03:17:05.986Z,99973.02
2023-04-29T03:19:33.009Z,99975.09
2023-04-29T03:21:59.861Z,99977.02
2023-04-29T03:24:26.602Z,99985.61
2023-04-29T03:26:54.104Z,99990.48
2023-04-29T03:29:20.919Z,99991.23
2023-04-29T03:31:47.574Z,99992.77
2023-04-29T03:34:15.074Z,99993.08
2023-04-29T03:36:43.733Z,99999.29
2023-04-29T03:39:12.000Z,99999.52
2023-04-29T03:41:38.674Z,100001.86
2023-04-29T03:44:05.389Z,99998.23
2023-04-29T03:48:44.094Z,100002.57
2023-04-29T03:51:11.258Z,100005.29
2023-04-29T03:53:38.168Z,100004.21
2023-04-29T03:56:05.624Z,100003.30
2023-04-29T03:58:32.510Z,100007.42
2023-04-29T04:00:59.379Z,100012.64
2023-04-29T04:03:31.052Z,100012.48
2023-04-29T04:05:58.123Z,100015.48
2023-04-29T04:08:25.030Z,100013.06
2023-04-29T04:11:02.863Z,100010.92
2023-04-29T04:13:37.560Z,100014.03
2023-04-29T04:16:05.289Z,100015.51
2023-04-29T04:18:32.327Z,100016.75
2023-04-29T04:21:05.940Z,100015.02
2023-04-29T04:23:32.851Z,100018.66
2023-04-29T04:26:01.620Z,100021.34
2023-04-29T04:28:47.237Z,100022.96
2023-04-29T04:31:20.808Z,100023.10
2023-04-29T04:33:47.830Z,100021.25
2023-04-29T04:36:15.131Z,100019.90
2023-04-29T04:38:42.190Z,100020.45
2023-04-29T04:41:13.222Z,100023.51
2023-04-29T04:43:47.846Z,100023.11
2023-04-29T04:46:20.454Z,100018.11
2023-04-29T04:49:01.128Z,100022.60
2023-04-29T04:51:29.477Z,100018.69
2023-04-29T04:53:56.383Z,100017.77
2023-04-29T04:56:26.608Z,100012.98
2023-04-29T04:58:53.674Z,100014.07
2023-04-29T05:01:21.207Z,100012.33
2023-04-29T05:03:48.317Z,100014.89
2023-04-29T05:06:16.337Z,100014.04
2023-04-29T05:08:45.510Z,100016.06
2023-04-29T05:11:22.330Z,100016.33
2023-04-29T05:14:01.840Z,100013.27
2023-04-29T05:16:28.984Z,100013.51
2023-04-29T05:18:56.291Z,100009.70
2023-04-29T05:21:25.444Z,100010.20
2023-04-29T05:23:52.365Z,100007.98
2023-04-29T05:26:19.285Z,100006.84
2023-04-29T05:28:46.227Z,100013.85
2023-04-29T05:31:13.907Z,100016.64
2023-04-29T05:33:40.905Z,100022.13
2023-04-29T05:36:08.371Z,100018.39
2023-04-29T05:38:35.574Z,100019.46
2023-04-29T05:41:04.933Z,100024.42
2023-04-29T05:43:46.639Z,100022.23
2023-04-29T05:46:16.587Z,100019.63
2023-04-29T05:48:43.734Z,100021.56
2023-04-29T05:51:10.854Z,100018.27
2023-04-29T05:53:38.826Z,100021.46
2023-04-29T05:56:08.381Z,100020.41
2023-04-29T05:58:35.973Z,100019.86
2023-04-29T06:01:03.349Z,100020.27
2023-04-29T06:03:31.512Z,100016.31
2023-04-29T06:06:17.133Z,100022.31
2023-04-29T06:09:02.144Z,100025.08
2023-04-29T06:11:31.648Z,100027.10
2023-04-29T06:14:00.747Z,100022.73
2023-04-29T06:16:28.334Z,100020.10
2023-04-29T06:18:55.438Z,100023.17
2023-04-29T06:21:22.300Z,100027.61
2023-04-29T06:23:49.115Z,100026.23
2023-04-29T06:26:17.114Z,100021.47
2023-04-29T06:28:44.672Z,100022.64
2023-04-29T06:31:11.963Z,100021.52
2023-04-29T06:33:39.388Z,100024.34
2023-04-29T06:36:06.529Z,100027.45
2023-04-29T06:38:45.443Z,100030.67
2023-04-29T06:41:34.179Z,100024.66
2023-04-29T06:44:27.906Z,100024.33
2023-04-29T06:47:05.075Z,100025.82
2023-04-29T06:49:53.299Z,100025.42
2023-04-29T06:52:21.834Z,100024.40
2023-04-29T06:54:48.760Z,100027.07
2023-04-29T06:57:15.648Z,100028.88
2023-04-29T06:59:47.816Z,100030.67
2023-04-29T07:02:14.770Z,100033.73
2023-04-29T07:04:42.263Z,100032.89
2023-04-29T07:07:09.888Z,100028.46
2023-04-29T07:09:36.717Z,100029.97
2023-04-29T07:12:05.005Z,100033.62
2023-04-29T07:14:32.066Z,100029.30
2023-04-29T07:16:59.224Z,100029.48
2023-04-29T07:19:26.486Z,100030.39
2023-04-29T07:21:53.269Z,100031.23
2023-04-29T07:24:20.122Z,100027.59
2023-04-29T07:26:48.965Z,100033.02
2023-04-29T07:29:17.490Z,100032.16
2023-04-29T07:31:44.528Z,100032.54
2023-04-29T07:34:12.042Z,100026.49
2023-04-29T07:36:39.354Z,100024.27
2023-04-29T07:39:06.360Z,100025.16
2023-04-29T07:41:33.335Z,100022.20
2023-04-29T07:44:00.335Z,100024.02
2023-04-29T07:46:27.319Z,100018.25
2023-04-29T07:48:54.368Z,100017.85
2023-04-29T07:51:21.945Z,100019.67
2023-04-29T07:53:48.852Z,100017.36
2023-04-29T07:56:16.396Z,100013.34
2023-04-29T07:58:43.348Z,100014.52
2023-04-29T08:01:11.990Z,100013.22
2023-04-29T08:03:41.803Z,100009.48
2023-04-29T08:06:09.794Z,100009.72
2023-04-29T08:08:36.890Z,100009.70
2023-04-29T08:11:04.706Z,100009.16
2023-04-29T08:13:31.535Z,100007.89
2023-04-29T08:15:58.340Z,100009.00
2023-04-29T08:18:25.221Z,100003.34
2023-04-29T08:20:52.178Z,100003.48
2023-04-29T08:23:18.964Z,100004.04
2023-04-29T08:25:45.883Z,100002.55
2023-04-29T08:28:13.226Z,100001.17
2023-04-29T08:30:41.082Z,100003.61
2023-04-29T08:33:08.474Z,100002.09
2023-04-29T08:35:38.799Z,100001.08
2023-04-29T08:38:06.852Z,100003.23
2023-04-29T08:40:37.354Z,100002.35
2023-04-29T08:43:05.073Z,99996.83
2023-04-29T08:45:32.675Z,100003.07
2023-04-29T08:47:59.710Z,99998.17
2023-04-29T08:50:26.622Z,100001.23
2023-04-29T08:52:53.410Z,100001.33
2023-04-29T08:55:20.349Z,100001.34
2023-04-29T08:57:47.262Z,100006.89
2023-04-29T09:00:14.156Z,100001.40
2023-04-29T09:02:50.200Z,100002.80
2023-04-29T09:05:17.192Z,99997.46
2023-04-29T09:07:44.160Z,99996.02
2023-04-29T09:10:11.835Z,99999.33
2023-04-29T09:12:38.645Z,99995.95
2023-04-29T09:15:06.336Z,100000.58
2023-04-29T09:17:40.492Z,99993.73
2023-04-29T09:20:28.422Z,99987.16
2023-04-29T09:23:04.208Z,99994.08
2023-04-29T09:25:31.685Z,99997.06
2023-04-29T09:27:58.592Z,99994.39
2023-04-29T09:30:27.000Z,99988.43
2023-04-29T09:33:20.495Z,99990.45
2023-04-29T09:35:48.780Z,99982.36
2023-04-29T09:38:16.327Z,99990.93
2023-04-29T09:40:58.179Z,99988.38
2023-04-29T09:43:26.973Z,99991.48
2023-04-29T09:45:54.013Z,99984.75
2023-04-29T09:48:20.865Z,99984.73
2023-04-29T09:51:01.638Z,99981.27
2023-04-29T09:53:29.890Z,99986.45
2023-04-29T09:56:02.881Z,99983.45
2023-04-29T09:58:42.175Z,99980.45
2023-04-29T10:01:09.172Z,99972.98
2023-04-29T10:03:38.257Z,99967.78
2023-04-29T10:06:06.808Z,99966.33
2023-04-29T10:08:34.070Z,99961.05
2023-04-29T10:11:02.359Z,99962.69
2023-04-29T10:13:29.343Z,99957.80
2023-04-29T10:16:01.291Z,99957.45
2023-04-29T10:18:36.724Z,99955.27
2023-04-29T10:21:06.592Z,99951.29
2023-04-29T10:23:33.711Z,99951.26
2023-04-29T10:26:01.109Z,99944.33
2023-04-29T10:28:28.273Z,99944.46
2023-04-29T10:30:55.101Z,99946.25
2023-04-29T10:33:23.463Z,99948.08
2023-04-29T10:35:51.361Z,99943.76
2023-04-29T10:38:24.598Z,99943.08
2023-04-29T10:40:51.502Z,99942.02
2023-04-29T10:43:24.097Z,99934.98
2023-04-29T10:45:50.958Z,99931.73
2023-04-29T10:48:21.109Z,99924.70
2023-04-29T10:50:48.169Z,99925.20
2023-04-29T10:53:16.094Z,99925.33
2023-04-29T10:55:43.516Z,99930.14
2023-04-29T10:58:36.111Z,99926.23
2023-04-29T11:01:03.322Z,99924.63
2023-04-29T11:03:58.459Z,99916.27
2023-04-29T11:06:39.855Z,99912.31
2023-04-29T11:09:09.866Z,99920.38
2023-04-29T11:11:46.636Z,99910.65
2023-04-29T11:14:14.145Z,99902.69
2023-04-29T11:16:55.398Z,99894.89
2023-04-29T11:19:27.056Z,99899.80
2023-04-29T11:22:10.201Z,99896.52
2023-04-29T11:24:37.078Z,99901.34
2023-04-29T11:27:06.810Z,99898.87
2023-04-29T11:29:33.763Z,99895.45
2023-04-29T11:32:02.097Z,99892.86
2023-04-29T11:34:29.052Z,99889.27
2023-04-29T11:36:56.508Z,99894.68
2023-04-29T11:39:23.307Z,99891.46
2023-04-29T11:41:52.499Z,99889.52
2023-04-29T11:44:23.819Z,99879.96
2023-04-29T11:46:50.675Z,99878.00
2023-04-29T11:49:17.609Z,99879.21
2023-04-29T11:51:44.548Z,99875.06
2023-04-29T11:54:11.487Z,99875.00
2023-04-29T11:56:38.544Z,99875.78
2023-04-29T11:59:08.180Z,99870.52
2023-04-29T12:01:36.152Z,99871.45
2023-04-29T12:04:04.120Z,99868.05
2023-04-29T12:06:31.801Z,99854.66
2023-04-29T12:09:00.029Z,99847.52
2023-04-29T12:11:26.991Z,99845.09
2023-04-29T12:13:55.186Z,99841.84
2023-04-29T12:16:24.277Z,99841.48
2023-04-29T12:18:52.744Z,99840.09
2023-04-29T12:21:19.582Z,99841.56
2023-04-29T12:23:46.706Z,99835.60
2023-04-29T12:26:13.964Z,99832.30
2023-04-29T12:28:41.995Z,99837.33
2023-04-29T12:31:10.248Z,99836.06
2023-04-29T12:33:37.765Z,99832.63
2023-04-29T12:36:05.078Z,99830.18
2023-04-29T12:38:31.962Z,99824.71
2023-04-29T12:40:59.744Z,99824.95
2023-04-29T12:43:30.195Z,99820.74
2023-04-29T12:46:08.161Z,99819.34
2023-04-29T12:48:38.250Z,99817.87
2023-04-29T12:51:05.311Z,99818.20
2023-04-29T12:53:33.047Z,99811.04
2023-04-29T12:56:00.044Z,99810.80
2023-04-29T12:58:30.715Z,99797.10
2023-04-29T13:00:58.442Z,99799.20
2023-04-29T13:03:26.936Z,99792.92
2023-04-29T13:05:55.069Z,99795.45
2023-04-29T13:08:23.179Z,99798.23
2023-04-29T13:10:51.052Z,99791.94
2023-04-29T13:13:17.862Z,99787.94
2023-04-29T13:15:45.020Z,99790.90
2023-04-29T13:18:12.010Z,99791.42
2023-04-29T13:20:42.320Z,99784.49
2023-04-29T13:23:10.198Z,99790.95
2023-04-29T13:25:37.141Z,99791.27
2023-04-29T13:28:05.660Z,99795.08
2023-04-29T13:30:33.444Z,99796.10
2023-04-29T13:33:08.458Z,99793.17
2023-04-29T13:35:40.318Z,99800.18
2023-04-29T13:38:08.366Z,99797.65
2023-04-29T13:40:39.446Z,99804.05
2023-04-29T13:43:09.541Z,99803.88
2023-04-29T13:45:41.531Z,99796.43
2023-04-29T13:48:28.327Z,99800.70
2023-04-29T13:51:41.231Z,99805.39
2023-04-29T13:54:37.211Z,99799.29
2023-04-29T14:04:01.520Z,99799.33
2023-04-29T14:06:28.589Z,99798.16
2023-04-29T14:08:55.613Z,99795.86
2023-04-29T14:11:22.422Z,99794.48
2023-04-29T14:13:49.693Z,99790.69
2023-04-29T14:16:17.130Z,99788.70
2023-04-29T14:18:44.023Z,99786.02
2023-04-29T14:21:11.541Z,99780.70
2023-04-29T14:23:38.402Z,99782.66
2023-04-29T14:26:22.992Z,99776.84
2023-04-29T14:28:59.700Z,99776.17
2023-04-29T14:31:28.916Z,99769.45
2023-04-29T14:33:59.507Z,99768.23
2023-04-29T14:36:29.252Z,99769.48
2023-04-29T14:38:56.165Z,99777.55
2023-04-29T14:41:23.036Z,99778.08
2023-04-29T14:43:50.002Z,99776.05
2023-04-29T14:46:17.109Z,99777.41
2023-04-29T14:48:44.297Z,99776.49
2023-04-29T14:51:11.643Z,99776.21
2023-04-29T14:53:39.151Z,99778.14
2023-04-29T14:56:06.686Z,99778.20
2023-04-29T14:58:35.017Z,99770.96
2023-04-29T15:01:01.991Z,99768.77
2023-04-29T15:03:28.986Z,99767.70
2023-04-29T15:05:56.501Z,99775.45
2023-04-29T15:08:23.581Z,99770.88
2023-04-29T15:10:50.851Z,99777.17
2023-04-29T15:13:17.956Z,99778.20
2023-04-29T15:15:45.413Z,99774.87
2023-04-29T15:18:12.400Z,99768.45
2023-04-29T15:20:42.680Z,99761.64
2023-04-29T15:23:10.028Z,99763.06
2023-04-29T15:25:38.489Z,99760.23
2023-04-29T15:28:06.075Z,99759.92
2023-04-29T15:30:33.083Z,99759.43
2023-04-29T15:33:00.288Z,99762.56
2023-04-29T15:35:27.903Z,99768.94
2023-04-29T15:37:55.153Z,99774.03
2023-04-29T15:40:22.171Z,99767.18
2023-04-29T15:42:49.059Z,99769.54
2023-04-29T15:45:17.108Z,99771.44
2023-04-29T15:47:44.188Z,99769.69
2023-04-29T15:50:11.238Z,99767.35
2023-04-29T15:52:38.038Z,99771.84
2023-04-29T15:55:11.041Z,99774.96
2023-04-29T15:57:41.508Z,99780.52
2023-04-29T16:00:09.074Z,99781.88
2023-04-29T16:02:36.101Z,99786.27
2023-04-29T16:06:52.545Z,99784.89
2023-04-29T16:09:21.546Z,99783.05
2023-04-29T16:11:48.541Z,99782.42
2023-04-29T16:14:15.358Z,99777.88
2023-04-29T16:16:42.323Z,99777.38
2023-04-29T16:19:09.295Z,99779.28
2023-04-29T16:21:36.534Z,99780.34
2023-04-29T16:24:03.530Z,99780.78
2023-04-29T16:26:32.217Z,99781.19
2023-04-29T16:28:59.913Z,99779.13
2023-04-29T16:31:27.811Z,99777.75
2023-04-29T16:33:56.557Z,99779.54
2023-04-29T16:36:24.038Z,99778.66
2023-04-29T16:38:54.412Z,99781.27
2023-04-29T16:41:26.204Z,99775.43
2023-04-29T16:43:55.839Z,99772.72
2023-04-29T16:46:22.558Z,99778.11
2023-04-29T16:48:51.763Z,99777.66
2023-04-29T16:51:18.675Z,99780.04
2023-04-29T16:53:45.754Z,99783.80
2023-04-29T16:56:16.239Z,99781.56
2023-04-29T16:58:42.928Z,99780.09
2023-04-29T17:01:09.711Z,99780.89
2023-04-29T17:03:36.787Z,99779.81
2023-04-29T17:06:04.895Z,99784.02
2023-04-29T17:08:32.732Z,99779.84
2023-04-29T17:10:59.353Z,99781.11
2023-04-29T17:13:26.679Z,99780.65
2023-04-29T17:15:53.422Z,99778.11
2023-04-29T17:18:20.462Z,99786.28
2023-04-29T17:20:48.774Z,99784.89
2023-04-29T17:23:17.718Z,99783.24
2023-04-29T17:25:44.604Z,99784.15
2023-04-29T17:28:11.559Z,99787.09
2023-04-29T17:30:38.894Z,99791.34
2023-04-29T17:33:06.226Z,99795.17
2023-04-29T17:35:33.661Z,99792.41
2023-04-29T17:38:00.498Z,99796.48
2023-04-29T17:40:27.561Z,99796.84
2023-04-29T17:42:54.626Z,99796.05
2023-04-29T17:45:21.274Z,99804.83
2023-04-29T17:47:48.026Z,99799.31
2023-04-29T17:50:14.935Z,99799.54
2023-04-29T17:52:42.917Z,99796.44
2023-04-29T17:55:10.163Z,99792.79
2023-04-29T17:57:40.396Z,99795.73
2023-04-29T18:00:07.894Z,99798.20
2023-04-29T18:02:35.225Z,99799.27
2023-04-29T18:05:02.850Z,99798.38
2023-04-29T18:07:30.147Z,99800.46
2023-04-29T18:09:57.746Z,99800.94
2023-04-29T18:12:25.185Z,99800.48
2023-04-29T18:14:52.117Z,99802.25
2023-04-29T18:17:19.418Z,99800.33
2023-04-29T18:19:48.705Z,99798.05
2023-04-29T18:22:15.584Z,99800.15
2023-04-29T18:24:42.523Z,99803.98
2023-04-29T18:27:09.212Z,99805.72
2023-04-29T18:29:35.862Z,99804.55
2023-04-29T18:32:03.907Z,99801.29
2023-04-29T18:34:32.112Z,99798.24
2023-04-29T18:36:59.055Z,99796.92
2023-04-29T18:39:25.910Z,99795.62
2023-04-29T18:41:52.753Z,99796.52
2023-04-29T18:44:19.580Z,99797.31
2023-04-29T18:46:46.355Z,99794.53
2023-04-29T18:49:16.239Z,99794.02
2023-04-29T18:51:46.183Z,99792.17
2023-04-29T18:54:19.441Z,99789.87
2023-04-29T18:56:47.339Z,99788.48
2023-04-29T18:59:18.382Z,99786.54
2023-04-29T19:01:45.823Z,99786.23
2023-04-29T19:04:13.002Z,99784.15
2023-04-29T19:06:41.045Z,99780.91
2023-04-29T19:09:07.916Z,99779.83
2023-04-29T19:11:34.727Z,99777.08
2023-04-29T19:14:03.451Z,99773.95
2023-04-29T19:16:30.443Z,99775.48
2023-04-29T19:18:57.234Z,99773.68
2023-04-29T19:21:23.943Z,99771.88
2023-04-29T19:23:50.735Z,99767.16
2023-04-29T19:26:17.386Z,99766.20
2023-04-29T19:28:44.142Z,99761.77
2023-04-29T19:31:11.223Z,99758.41
2023-04-29T19:33:38.322Z,99761.48
2023-04-29T19:36:05.008Z,99759.98
2023-04-29T19:38:31.890Z,99757.13
2023-04-29T19:40:58.538Z,99756.45
2023-04-29T19:43:25.274Z,99756.92
2023-04-29T19:45:51.981Z,99756.57
2023-04-29T19:48:18.840Z,99753.70
2023-04-29T19:50:45.620Z,99752.20
2023-04-29T19:53:12.572Z,99751.85
2023-04-29T19:55:39.435Z,99754.11
2023-04-29T19:58:07.649Z,99751.49
2023-04-29T20:00:34.476Z,99755.17
2023-04-29T20:03:02.043Z,99754.64
2023-04-29T20:05:29.148Z,99751.86
2023-04-29T20:07:56.406Z,99746.79
2023-04-29T20:10:23.166Z,99743.69
2023-04-29T20:12:50.145Z,99739.82
2023-04-29T20:15:16.923Z,99739.58
2023-04-29T20:17:43.760Z,99736.28
2023-04-29T20:20:10.929Z,99740.17
2023-04-29T20:22:38.464Z,99737.28
2023-04-29T20:25:05.920Z,99737.94
2023-04-29T20:27:32.718Z,99741.08
2023-04-29T20:29:59.646Z,99739.84
2023-04-29T20:32:26.893Z,99735.52
2023-04-29T20:34:53.886Z,99736.83
2023-04-29T20:37:20.898Z,99739.01
2023-04-29T20:39:48.166Z,99742.96
2023-04-29T20:42:14.809Z,99739.05
2023-04-29T20:44:41.588Z,99733.97
2023-04-29T20:47:08.319Z,99738.59
2023-04-29T20:49:35.223Z,99734.98
2023-04-29T20:52:02.312Z,99731.35
2023-04-29T20:54:29.137Z,99729.92
2023-04-29T20:56:56.244Z,99727.70
2023-04-29T20:59:23.364Z,99728.92
2023-04-29T21:01:50.353Z,99729.17
2023-04-29T21:04:17.217Z,99728.16
2023-04-29T21:06:44.102Z,99725.93
2023-04-29T21:09:11.364Z,99722.81
2023-04-29T21:11:38.136Z,99719.55
2023-04-29T21:14:04.882Z,99719.56
2023-04-29T21:16:31.698Z,99718.66
2023-04-29T21:18:58.448Z,99719.92
2023-04-29T21:21:25.678Z,99717.55
2023-04-29T21:23:52.447Z,99717.34
2023-04-29T21:26:19.080Z,99720.20
2023-04-29T21:28:48.174Z,99725.13
2023-04-29T21:31:15.739Z,99726.61
2023-04-29T21:33:45.672Z,99729.42
2023-04-29T21:36:12.726Z,99737.27
2023-04-29T21:38:41.891Z,99734.85
2023-04-29T21:41:16.702Z,99732.59
2023-04-29T21:43:43.510Z,99734.53
2023-04-29T21:46:10.246Z,99732.38
2023-04-29T21:48:37.597Z,99731.48
2023-04-29T21:51:06.769Z,99729.05
2023-04-29T21:53:34.508Z,99731.46
2023-04-29T21:56:01.300Z,99726.24
2023-04-29T21:58:28.174Z,99727.84
2023-04-29T22:01:02.771Z,99727.54
2023-04-29T22:03:29.830Z,99734.02
2023-04-29T22:05:57.103Z,99725.88
2023-04-29T22:08:27.020Z,99725.36
2023-04-29T22:10:53.707Z,99725.75
2023-04-29T22:13:21.017Z,99722.91
2023-04-29T22:15:47.921Z,99724.65
2023-04-29T22:18:14.823Z,99725.17
2023-04-29T22:20:41.557Z,99730.27
2023-04-29T22:23:11.794Z,99726.75
2023-04-29T22:25:38.511Z,99725.39
2023-04-29T22:28:05.329Z,99726.05
2023-04-29T22:30:32.120Z,99733.05
2023-04-29T22:32:58.810Z,99731.14
2023-04-29T22:35:25.510Z,99731.35
2023-04-29T22:37:52.235Z,99731.86
2023-04-29T22:40:18.969Z,99735.48
2023-04-29T22:42:45.716Z,99727.31
2023-04-29T22:45:12.686Z,99726.10
2023-04-29T22:47:39.484Z,99721.02
2023-04-29T22:50:07.049Z,99725.26
2023-04-29T22:52:34.178Z,99725.71
2023-04-29T22:55:01.046Z,99725.28
2023-04-29T22:57:28.141Z,99720.72
2023-04-29T22:59:56.719Z,99716.08
2023-04-29T23:02:30.403Z,99713.52
2023-04-29T23:04:58.730Z,99713.02
2023-04-29T23:07:26.962Z,99717.31
2023-04-29T23:09:53.979Z,99718.05
2023-04-29T23:12:21.138Z,99720.83
2023-04-29T23:14:50.277Z,99722.85
2023-04-29T23:17:16.942Z,99727.33
2023-04-29T23:19:43.722Z,99727.30
2023-04-29T23:22:10.549Z,99724.98
2023-04-29T23:24:37.559Z,99721.08
2023-04-29T23:27:05.587Z,99725.81
2023-04-29T23:29:33.485Z,99723.48
2023-04-29T23:32:00.616Z,99724.29
2023-04-29T23:34:27.326Z,99730.65
2023-04-29T23:36:54.564Z,99728.48
2023-04-29T23:39:21.368Z,99721.92
2023-04-29T23:41:48.088Z,99719.92
2023-04-29T23:44:14.879Z,99724.02
2023-04-29T23:46:41.688Z,99722.98
2023-04-29T23:49:09.796Z,99727.98
2023-04-29T23:51:36.950Z,99726.46
2023-04-29T23:54:03.714Z,99726.09
2023-04-29T23:56:33.112Z,99725.63
2023-04-29T23:59:00.143Z,99726.20
